createdAt,value
2019-04-25T00:01:09.012Z,54.05
2019-04-25T00:06:17.359Z,43.85
2019-04-25T00:11:24.752Z,42.60
2019-04-25T00:16:32.997Z,44.83
2019-04-25T00:21:42.531Z,44.08
2019-04-25T00:26:52.524Z,37.78
2019-04-25T00:32:01.536Z,37.03
2019-04-25T00:37:08.953Z,27.30
2019-04-25T00:42:16.223Z,22.00
2019-04-25T00:47:23.585Z,23.12
2019-04-25T00:52:31.342Z,24.98
2019-04-25T00:57:42.678Z,19.80
2019-04-25T01:02:52.554Z,20.27
2019-04-25T01:07:59.582Z,20.10
2019-04-25T01:13:07.646Z,19.52
2019-04-25T01:18:15.256Z,19.32
2019-04-25T01:23:23.712Z,18.55
2019-04-25T01:28:31.253Z,17.48
2019-04-25T01:33:39.769Z,17.75
2019-04-25T01:38:49.079Z,17.80
2019-04-25T01:43:59.615Z,18.42
2019-04-25T01:49:06.325Z,17.53
2019-04-25T01:54:14.099Z,16.62
2019-04-25T01:59:21.329Z,16.55
2019-04-25T02:04:29.421Z,16.05
2019-04-25T02:09:37.318Z,15.48
2019-04-25T02:14:45.196Z,14.80
2019-04-25T02:19:54.494Z,15.75
2019-04-25T02:25:01.099Z,14.45
2019-04-25T02:30:10.663Z,14.23
2019-04-25T02:35:17.891Z,13.83
2019-04-25T02:40:25.482Z,13.75
2019-04-25T02:45:34.472Z,12.75
2019-04-25T02:55:48.730Z,13.35
2019-04-25T03:01:02.844Z,13.53
2019-04-25T03:06:07.488Z,13.35
2019-04-25T03:11:15.021Z,12.98
2019-04-25T03:16:21.797Z,12.88
2019-04-25T03:21:31.196Z,13.03
2019-04-25T03:26:40.635Z,12.78
2019-04-25T03:31:47.232Z,13.05
2019-04-25T03:36:54.511Z,12.05
2019-04-25T03:42:02.249Z,11.05
2019-04-25T03:47:09.945Z,11.53
2019-04-25T03:52:17.553Z,11.93
2019-04-25T03:57:24.765Z,11.50
2019-04-25T04:07:55.532Z,11.20
2019-04-25T04:13:04.195Z,11.33
2019-04-25T04:18:14.458Z,9.60
2019-04-25T04:23:23.222Z,10.30
2019-04-25T04:28:30.511Z,8.95
2019-04-25T04:33:37.816Z,9.28
2019-04-25T04:38:45.118Z,9.85
2019-04-25T04:43:54.021Z,24.55
2019-04-25T04:49:03.900Z,10.75
2019-04-25T04:54:13.233Z,10.75
2019-04-25T04:59:19.852Z,10.97
2019-04-25T05:04:28.790Z,10.72
2019-04-25T05:09:36.069Z,10.10
2019-04-25T05:14:43.660Z,11.30
2019-04-25T05:19:51.108Z,10.75
2019-04-25T05:24:58.150Z,12.43
2019-04-25T05:30:09.038Z,14.75
2019-04-25T05:35:16.338Z,16.90
2019-04-25T05:40:24.439Z,12.68
2019-04-25T05:45:34.034Z,10.82
2019-04-25T05:50:41.249Z,10.78
2019-04-25T05:55:48.346Z,10.50
2019-04-25T06:00:56.333Z,10.48
2019-04-25T06:06:04.539Z,10.50
2019-04-25T06:11:15.410Z,9.98
2019-04-25T06:16:25.732Z,10.08
2019-04-25T06:21:33.749Z,9.43
2019-04-25T06:26:43.333Z,9.48
2019-04-25T06:31:50.656Z,9.70
2019-04-25T06:36:59.200Z,9.85
2019-04-25T06:42:06.846Z,9.80
2019-04-25T06:47:15.140Z,10.78
2019-04-25T06:52:27.729Z,10.00
2019-04-25T06:57:34.089Z,10.15
2019-04-25T07:02:41.417Z,9.40
2019-04-25T07:07:49.408Z,9.70
2019-04-25T07:12:58.409Z,10.20
2019-04-25T07:18:06.676Z,9.70
2019-04-25T07:23:14.431Z,9.23
2019-04-25T07:28:44.031Z,9.75
2019-04-25T07:33:53.199Z,9.13
2019-04-25T07:39:08.227Z,9.53
2019-04-25T07:44:11.591Z,8.90
2019-04-25T07:49:19.640Z,9.20
2019-04-25T07:54:27.864Z,9.80
2019-04-25T07:59:36.447Z,8.98
2019-04-25T08:04:45.358Z,9.80
2019-04-25T08:09:54.136Z,9.20
2019-04-25T08:20:09.634Z,9.43
2019-04-25T08:25:17.505Z,9.13
2019-04-25T08:30:24.893Z,9.50
2019-04-25T08:35:34.194Z,9.85
2019-04-25T08:40:44.099Z,9.70
2019-04-25T08:46:13.913Z,9.80
2019-04-25T08:51:50.151Z,8.90
2019-04-25T08:56:59.297Z,9.60
2019-04-25T09:02:11.348Z,8.63
2019-04-25T09:07:18.777Z,8.63
2019-04-25T09:12:28.078Z,9.95
2019-04-25T09:17:36.663Z,9.95
2019-04-25T09:22:45.582Z,9.40
2019-04-25T09:27:54.361Z,10.05
2019-04-25T09:33:03.082Z,9.53
2019-04-25T09:38:11.095Z,10.00
2019-04-25T09:43:18.156Z,10.03
2019-04-25T09:48:25.783Z,10.68
2019-04-25T09:53:34.288Z,9.43
2019-04-25T09:58:44.661Z,9.00
2019-04-25T10:03:55.758Z,9.23
2019-04-25T10:09:05.669Z,9.90
2019-04-25T10:14:16.507Z,9.70
2019-04-25T10:19:23.928Z,10.85
2019-04-25T10:24:31.265Z,12.80
2019-04-25T10:29:44.822Z,13.15
2019-04-25T10:34:47.373Z,9.17
2019-04-25T10:39:55.856Z,11.80
2019-04-25T10:50:30.653Z,13.27
2019-04-25T11:33:49.944Z,18.30
2019-04-25T11:38:59.307Z,22.35
2019-04-25T11:44:07.884Z,20.97
2019-04-25T11:49:16.398Z,19.07
2019-04-25T11:54:24.262Z,18.80
2019-04-25T11:59:33.956Z,35.10
2019-04-25T12:04:42.561Z,32.20
2019-04-25T12:09:50.719Z,41.53
2019-04-25T12:14:58.533Z,23.05
2019-04-25T12:20:07.217Z,22.10
2019-04-25T12:25:15.678Z,21.45
2019-04-25T12:30:36.420Z,45.25
2019-04-25T12:35:34.104Z,35.73
2019-04-25T12:40:43.279Z,18.40
2019-04-25T12:45:52.834Z,15.23
2019-04-25T12:51:00.771Z,14.65
2019-04-25T12:56:09.405Z,12.50
2019-04-25T13:01:17.828Z,12.90
2019-04-25T13:06:25.569Z,13.18
2019-04-25T13:11:34.853Z,14.05
2019-04-25T13:16:44.222Z,13.70
2019-04-25T13:21:52.215Z,15.58
2019-04-25T13:27:01.222Z,16.35
2019-04-25T13:32:10.398Z,16.82
2019-04-25T13:37:18.953Z,17.17
2019-04-25T13:42:27.145Z,18.65
2019-04-25T13:47:36.247Z,20.02
2019-04-25T13:52:44.150Z,18.95
2019-04-25T13:57:53.105Z,18.20
2019-04-25T14:03:01.680Z,19.92
2019-04-25T14:08:10.096Z,19.90
2019-04-25T14:13:17.987Z,19.42
2019-04-25T14:18:27.371Z,20.65
2019-04-25T14:23:35.738Z,22.32
2019-04-25T14:28:44.288Z,22.37
2019-04-25T14:33:52.255Z,20.57
2019-04-25T14:39:00.185Z,20.85
2019-04-25T14:44:09.214Z,20.55
2019-04-25T14:49:17.221Z,19.32
2019-04-25T14:54:26.526Z,20.37
2019-04-25T14:59:34.776Z,20.13
2019-04-25T15:04:42.547Z,19.10
2019-04-25T15:09:50.260Z,20.70
2019-04-25T15:14:58.468Z,20.57
2019-04-25T15:20:08.540Z,19.48
2019-04-25T15:25:16.726Z,20.00
2019-04-25T15:30:29.075Z,20.27
2019-04-25T15:35:37.762Z,19.90
2019-04-25T15:40:47.456Z,20.97
2019-04-25T15:45:57.475Z,20.03
2019-04-25T15:51:06.495Z,20.57
2019-04-25T15:56:15.984Z,20.40
2019-04-25T16:01:24.416Z,21.85
2019-04-25T16:06:32.338Z,21.15
2019-04-25T16:11:41.255Z,20.30
2019-04-25T16:16:50.482Z,19.82
2019-04-25T16:21:58.446Z,20.00
2019-04-25T16:27:08.200Z,20.05
2019-04-25T16:32:20.679Z,20.00
2019-04-25T16:37:27.952Z,19.07
2019-04-25T16:42:37.612Z,20.73
2019-04-25T16:47:46.236Z,19.80
2019-04-25T16:52:54.327Z,20.20
2019-04-25T16:58:02.318Z,20.57
2019-04-25T17:03:10.212Z,20.12
2019-04-25T17:08:20.136Z,20.40
2019-04-25T17:13:29.483Z,20.70
2019-04-25T17:18:39.782Z,21.75
2019-04-25T17:23:49.577Z,22.65
2019-04-25T17:28:58.568Z,21.97
2019-04-25T17:34:08.022Z,21.93
2019-04-25T17:39:17.037Z,22.73
2019-04-25T17:44:25.697Z,30.62
2019-04-25T17:49:34.528Z,36.60
2019-04-25T17:54:43.059Z,30.23
2019-04-25T17:59:51.304Z,26.62
2019-04-25T18:04:59.557Z,25.30
2019-04-25T18:10:09.327Z,24.70
2019-04-25T18:15:18.544Z,26.00
2019-04-25T18:20:27.451Z,25.68
2019-04-25T18:25:35.931Z,25.00
2019-04-25T18:30:46.824Z,23.60
2019-04-25T18:35:55.919Z,23.63
2019-04-25T18:41:04.821Z,23.07
2019-04-25T18:46:14.315Z,22.62
2019-04-25T18:51:22.367Z,21.52
2019-04-25T18:56:31.750Z,21.80
2019-04-25T19:01:41.644Z,21.48
2019-04-25T19:06:55.215Z,20.77
2019-04-25T19:11:58.816Z,21.07
2019-04-25T19:17:08.427Z,21.17
2019-04-25T19:22:16.679Z,20.82
2019-04-25T19:27:25.129Z,20.10
2019-04-25T19:32:53.097Z,20.70
2019-04-25T19:38:02.091Z,21.97
2019-04-25T19:43:11.913Z,21.80
2019-04-25T19:48:19.895Z,21.85
2019-04-25T19:53:28.015Z,22.52
2019-04-25T19:58:36.576Z,26.75
2019-04-25T20:03:51.855Z,23.73
2019-04-25T20:08:56.915Z,21.85
2019-04-25T20:14:05.638Z,23.20
2019-04-25T20:19:13.682Z,22.62
2019-04-25T20:24:22.141Z,23.57
2019-04-25T20:29:30.417Z,21.80
2019-04-25T20:34:38.687Z,21.55
2019-04-25T20:39:47.288Z,21.17
2019-04-25T20:44:56.005Z,20.52
2019-04-25T20:50:04.772Z,20.60
2019-04-25T20:55:12.842Z,20.30
2019-04-25T21:00:23.837Z,20.62
2019-04-25T21:05:32.031Z,21.80
2019-04-25T21:10:40.067Z,23.27
2019-04-25T21:15:50.711Z,22.50
2019-04-25T21:26:05.945Z,21.65
2019-04-25T21:31:14.319Z,21.30
2019-04-25T21:36:22.963Z,21.70
2019-04-25T21:41:32.736Z,23.90
2019-04-25T21:46:40.893Z,24.50
2019-04-25T21:51:48.809Z,27.25
2019-04-25T21:56:57.434Z,30.88
2019-04-25T22:02:05.930Z,30.85
2019-04-25T22:07:14.603Z,34.60
2019-04-25T22:12:22.773Z,37.15
2019-04-25T22:17:30.766Z,39.45
2019-04-25T22:22:39.395Z,36.75
2019-04-25T22:27:47.955Z,36.17
2019-04-25T22:32:57.143Z,37.55
2019-04-25T22:38:06.764Z,37.50
2019-04-25T22:43:15.452Z,34.13
2019-04-25T22:48:24.971Z,34.18
2019-04-25T22:53:33.049Z,32.13
2019-04-25T22:58:42.313Z,30.65
2019-04-25T23:03:51.742Z,29.67
2019-04-25T23:09:00.544Z,28.73
2019-04-25T23:14:10.934Z,32.70
2019-04-25T23:19:19.065Z,35.85
2019-04-25T23:24:30.750Z,31.35
2019-04-25T23:29:39.989Z,30.77
2019-04-25T23:34:48.652Z,32.90
2019-04-25T23:39:57.042Z,31.57
2019-04-25T23:45:07.995Z,33.35
2019-04-25T23:50:17.558Z,32.30
2019-04-25T23:55:25.885Z,29.75
